首页
METAR-TAF:

METAR-TAF

机场 :

Williamson County Regional Airport

马里恩, 伊利诺伊州, 美国

纬度: 37-45-01N, 经度: 089-00-04W, 海拔: 144米

当前天气观测

该预报发布于23分钟前的00:35 UTC
风速4节,风向东南
温度 20°C
湿度 100%
气压 1015 hPa
能見度: 11.3公里
散云层高于3300英尺
散云层高于7500英尺
阴天层高于10000英尺

METAR: KMWA 270035Z AUTO 13004KT 7SM RA SCT033 SCT075 OVC100 20/20 A2997 RMK AO2 P0010 T02030196

时间: 19:58 (00:58 UTC)


TAF: 丢失

超过4000个机场的气象观测和天气预报(METAR&TAF报告)。

可查询的气象台以黄色和红色小点在地图上表示。

将鼠标移到小点上方,可查看气象台名称。

然后点击查看天气观测和预报。

如需切换地图:点击带黑十字的绿色按钮放大地图;点击带横线的绿色按钮缩小地图;或者点击绿色箭头查看邻近地区的地图。


METAR-TAF: